createdAt,value
2022-12-03T00:02:15.343Z,29.88
2022-12-03T00:04:41.921Z,32.40
2022-12-03T00:07:08.304Z,28.85
2022-12-03T00:09:34.995Z,26.33
2022-12-03T00:12:01.472Z,26.80
2022-12-03T00:14:27.955Z,28.33
2022-12-03T00:16:54.301Z,28.25
2022-12-03T00:19:21.029Z,27.45
2022-12-03T00:21:47.361Z,26.67
2022-12-03T00:24:13.829Z,26.85
2022-12-03T00:26:40.222Z,31.27
2022-12-03T00:29:07.070Z,29.80
2022-12-03T00:31:33.495Z,27.05
2022-12-03T00:33:59.883Z,28.42
2022-12-03T00:36:27.551Z,27.92
2022-12-03T00:38:53.942Z,28.05
2022-12-03T00:41:20.375Z,30.27
2022-12-03T00:43:46.720Z,31.50
2022-12-03T00:46:15.790Z,28.45
2022-12-03T00:48:46.135Z,26.23
2022-12-03T00:51:13.069Z,31.02
2022-12-03T00:53:39.552Z,27.80
2022-12-03T00:56:06.437Z,30.02
2022-12-03T00:58:32.987Z,28.25
2022-12-03T01:00:59.363Z,28.00
2022-12-03T01:03:25.779Z,29.55
2022-12-03T01:05:52.137Z,31.65
2022-12-03T01:08:18.618Z,26.73
2022-12-03T01:10:44.953Z,31.25
2022-12-03T01:13:11.476Z,33.33
2022-12-03T01:15:37.865Z,36.00
2022-12-03T01:18:04.375Z,32.00
2022-12-03T01:20:30.730Z,32.88
2022-12-03T01:22:57.124Z,33.45
2022-12-03T01:25:23.582Z,29.95
2022-12-03T01:27:50.409Z,29.23
2022-12-03T01:30:16.750Z,33.78
2022-12-03T01:32:43.166Z,29.70
2022-12-03T01:35:09.705Z,33.35
2022-12-03T01:37:36.036Z,32.78
2022-12-03T01:40:02.672Z,30.05
2022-12-03T01:42:34.872Z,35.67
2022-12-03T01:45:02.810Z,31.02
2022-12-03T01:47:33.403Z,29.40
2022-12-03T01:50:07.020Z,31.23
2022-12-03T01:52:38.385Z,36.08
2022-12-03T01:55:11.498Z,38.00
2022-12-03T01:57:45.883Z,37.72
2022-12-03T02:00:24.809Z,32.83
2022-12-03T02:02:54.943Z,33.70
2022-12-03T02:05:26.077Z,36.08
2022-12-03T02:07:53.164Z,39.95
2022-12-03T02:10:26.017Z,38.20
2022-12-03T02:12:59.531Z,36.10
2022-12-03T02:15:26.159Z,34.35
2022-12-03T02:17:53.232Z,36.15
2022-12-03T02:20:19.932Z,37.70
2022-12-03T02:23:10.670Z,39.75
2022-12-03T02:25:37.895Z,40.05
2022-12-03T02:28:06.081Z,33.75
2022-12-03T02:30:32.991Z,35.67
2022-12-03T02:33:00.099Z,37.30
2022-12-03T02:35:32.676Z,36.63
2022-12-03T02:38:13.772Z,36.15
2022-12-03T02:40:41.902Z,35.95
2022-12-03T02:43:09.575Z,35.60
2022-12-03T02:45:39.490Z,39.42
2022-12-03T02:48:09.315Z,37.10
2022-12-03T02:50:45.986Z,35.65
2022-12-03T02:53:17.285Z,36.60
2022-12-03T02:55:44.261Z,37.55
2022-12-03T02:58:11.379Z,37.17
2022-12-03T03:00:39.013Z,38.22
2022-12-03T03:03:08.058Z,38.00
2022-12-03T03:05:37.767Z,33.70
2022-12-03T03:08:05.313Z,39.10
2022-12-03T03:10:34.228Z,37.20
2022-12-03T03:13:03.703Z,38.88
2022-12-03T03:15:30.286Z,35.97
2022-12-03T03:17:57.574Z,35.33
2022-12-03T03:20:23.955Z,38.80
2022-12-03T03:22:50.287Z,37.35
2022-12-03T03:25:21.000Z,35.85
2022-12-03T03:27:47.667Z,34.58
2022-12-03T03:30:16.930Z,42.25
2022-12-03T03:32:43.343Z,34.83
2022-12-03T03:35:11.470Z,40.10
2022-12-03T03:37:38.323Z,37.78
2022-12-03T03:40:05.274Z,33.95
2022-12-03T03:42:31.728Z,34.47
2022-12-03T03:44:58.339Z,38.40
2022-12-03T03:47:25.640Z,36.13
2022-12-03T03:49:52.949Z,35.60
2022-12-03T03:52:19.619Z,37.38
2022-12-03T03:54:46.956Z,33.35
2022-12-03T03:57:13.401Z,34.97
2022-12-03T03:59:39.778Z,36.47
2022-12-03T04:02:06.761Z,32.20
2022-12-03T04:04:36.601Z,40.30
2022-12-03T04:07:03.215Z,35.65
2022-12-03T04:09:29.570Z,35.58
2022-12-03T04:12:15.425Z,34.72
2022-12-03T04:14:41.777Z,37.85
2022-12-03T04:17:08.133Z,37.55
2022-12-03T04:19:35.199Z,35.88
2022-12-03T04:22:20.516Z,35.83
2022-12-03T04:24:46.927Z,37.58
2022-12-03T04:27:31.821Z,39.13
2022-12-03T04:29:58.259Z,38.88
2022-12-03T04:32:43.120Z,35.00
2022-12-03T04:35:28.541Z,37.63
2022-12-03T04:37:55.133Z,38.22
2022-12-03T04:40:40.249Z,37.50
2022-12-03T04:43:06.901Z,37.58
2022-12-03T04:45:33.303Z,41.17
2022-12-03T04:47:59.779Z,42.72
2022-12-03T04:50:26.232Z,38.50
2022-12-03T04:52:52.607Z,43.53
2022-12-03T04:55:18.976Z,38.35
2022-12-03T04:57:45.366Z,40.50
2022-12-03T05:00:12.364Z,39.53
2022-12-03T05:02:38.963Z,38.00
2022-12-03T05:05:05.884Z,38.42
2022-12-03T05:07:32.316Z,36.28
2022-12-03T05:09:58.685Z,38.92
2022-12-03T05:12:25.079Z,41.35
2022-12-03T05:14:51.816Z,35.70
2022-12-03T05:17:18.480Z,37.05
2022-12-03T05:20:03.307Z,40.25
2022-12-03T05:22:29.789Z,34.28
2022-12-03T05:24:56.563Z,37.05
2022-12-03T05:27:24.190Z,40.67
2022-12-03T05:29:51.163Z,35.88
2022-12-03T05:32:17.628Z,42.88
2022-12-03T05:34:44.086Z,37.92
2022-12-03T05:37:10.859Z,39.47
2022-12-03T05:39:37.579Z,38.53
2022-12-03T05:42:23.018Z,43.33
2022-12-03T05:44:49.737Z,37.45
2022-12-03T05:47:16.163Z,37.38
2022-12-03T05:49:42.546Z,41.08
2022-12-03T05:52:10.310Z,43.78
2022-12-03T05:54:36.644Z,42.13
2022-12-03T05:57:03.317Z,44.78
2022-12-03T05:59:29.757Z,41.30
2022-12-03T06:01:56.237Z,35.85
2022-12-03T06:04:22.620Z,35.42
2022-12-03T06:06:49.717Z,44.03
2022-12-03T06:09:16.166Z,39.88
2022-12-03T06:11:42.616Z,36.20
2022-12-03T06:14:09.087Z,36.95
2022-12-03T06:16:35.668Z,40.22
2022-12-03T06:19:02.048Z,40.38
2022-12-03T06:21:28.514Z,36.13
2022-12-03T06:23:54.902Z,40.05
2022-12-03T06:26:21.499Z,40.35
2022-12-03T06:28:49.266Z,40.58
2022-12-03T06:31:15.672Z,38.33
2022-12-03T06:33:42.153Z,41.45
2022-12-03T06:36:08.703Z,42.42
2022-12-03T06:38:35.041Z,39.67
2022-12-03T06:41:02.210Z,40.63
2022-12-03T06:43:28.578Z,38.13
2022-12-03T06:45:55.062Z,34.65
2022-12-03T06:48:21.404Z,47.33
2022-12-03T06:50:47.888Z,41.47
2022-12-03T06:53:14.263Z,37.03
2022-12-03T06:55:40.609Z,38.70
2022-12-03T06:58:07.114Z,38.38
2022-12-03T07:00:34.345Z,36.45
2022-12-03T07:03:01.073Z,42.50
2022-12-03T07:05:27.752Z,36.97
2022-12-03T07:07:55.257Z,43.63
2022-12-03T07:10:21.893Z,39.25
2022-12-03T07:12:48.324Z,38.67
2022-12-03T07:15:14.721Z,40.50
2022-12-03T07:17:41.065Z,42.03
2022-12-03T07:20:08.041Z,42.35
2022-12-03T07:22:34.504Z,39.63
2022-12-03T07:25:00.991Z,42.63
2022-12-03T07:27:27.348Z,41.75
2022-12-03T07:29:53.797Z,39.08
2022-12-03T07:32:20.143Z,44.97
2022-12-03T07:34:46.562Z,42.97
2022-12-03T07:37:13.403Z,40.05
2022-12-03T07:39:40.485Z,47.58
2022-12-03T07:42:09.175Z,42.72
2022-12-03T07:44:35.669Z,42.65
2022-12-03T07:47:02.315Z,40.55
2022-12-03T07:49:28.740Z,45.65
2022-12-03T07:51:56.747Z,40.58
2022-12-03T07:54:24.181Z,41.70
2022-12-03T07:56:50.613Z,43.60
2022-12-03T07:59:17.565Z,39.92
2022-12-03T08:01:44.370Z,43.78
2022-12-03T08:04:12.768Z,41.38
2022-12-03T08:06:39.227Z,49.10
2022-12-03T08:09:05.586Z,47.63
2022-12-03T08:11:35.850Z,41.95
2022-12-03T08:14:10.563Z,46.40
2022-12-03T08:16:39.532Z,43.15
2022-12-03T08:19:10.742Z,44.70
2022-12-03T08:21:37.657Z,44.05
2022-12-03T08:24:21.354Z,41.47
2022-12-03T08:26:48.982Z,43.33
2022-12-03T08:29:18.022Z,41.70
2022-12-03T08:31:49.844Z,41.05
2022-12-03T08:34:27.308Z,42.10
2022-12-03T08:37:01.359Z,45.75
2022-12-03T08:39:37.731Z,40.17
2022-12-03T08:42:32.024Z,43.63
2022-12-03T08:45:40.517Z,42.03
2022-12-03T08:48:24.200Z,42.38
2022-12-03T08:50:50.588Z,42.55
2022-12-03T08:53:32.984Z,40.20
2022-12-03T08:56:05.499Z,41.88
2022-12-03T08:58:43.692Z,44.15
2022-12-03T09:01:10.057Z,41.03
2022-12-03T09:03:38.440Z,45.15
2022-12-03T09:06:05.603Z,46.38
2022-12-03T09:08:32.028Z,43.67
2022-12-03T09:10:58.409Z,43.35
2022-12-03T09:13:24.854Z,39.30
2022-12-03T09:15:51.223Z,44.70
2022-12-03T09:18:17.663Z,43.33
2022-12-03T09:20:44.149Z,42.33
2022-12-03T09:23:10.701Z,41.15
2022-12-03T09:25:37.131Z,41.85
2022-12-03T09:28:03.906Z,44.22
2022-12-03T09:30:30.309Z,40.10
2022-12-03T09:32:56.752Z,38.72
2022-12-03T09:35:23.475Z,38.75
2022-12-03T09:37:49.815Z,36.47
2022-12-03T09:40:16.257Z,36.42
2022-12-03T09:42:42.779Z,37.00
2022-12-03T09:45:12.146Z,37.97
2022-12-03T09:47:45.143Z,42.30
2022-12-03T09:50:19.138Z,34.22
2022-12-03T09:52:46.835Z,36.92
2022-12-03T09:55:17.038Z,39.50
2022-12-03T09:57:43.825Z,40.92
2022-12-03T10:00:30.289Z,36.00
2022-12-03T10:03:01.244Z,34.50
2022-12-03T10:05:28.637Z,34.60
2022-12-03T10:08:03.142Z,37.50
2022-12-03T10:10:29.669Z,34.97
2022-12-03T10:12:56.208Z,37.60
2022-12-03T10:15:23.874Z,37.58
2022-12-03T10:17:53.176Z,37.17
2022-12-03T10:20:21.757Z,39.83
2022-12-03T10:22:48.775Z,41.22
2022-12-03T10:25:24.338Z,37.67
2022-12-03T10:28:01.108Z,35.25
2022-12-03T10:30:28.999Z,35.45
2022-12-03T10:32:57.952Z,38.15
2022-12-03T10:35:26.164Z,35.38
2022-12-03T10:38:07.279Z,36.25
2022-12-03T10:40:37.569Z,38.45
2022-12-03T10:43:18.900Z,35.63
2022-12-03T10:45:49.569Z,40.38
2022-12-03T10:48:17.362Z,41.08
2022-12-03T10:51:02.353Z,35.25
2022-12-03T10:53:31.494Z,33.20
2022-12-03T10:56:01.733Z,42.10
2022-12-03T10:58:30.977Z,37.03
2022-12-03T11:00:59.182Z,37.70
2022-12-03T11:03:30.695Z,36.30
2022-12-03T11:06:00.091Z,37.40
2022-12-03T11:08:34.959Z,40.80
2022-12-03T11:11:16.981Z,38.97
2022-12-03T11:13:47.563Z,35.80
2022-12-03T11:16:34.594Z,41.05
2022-12-03T11:19:02.153Z,36.83
2022-12-03T11:21:31.718Z,39.00
2022-12-03T11:24:18.872Z,39.70
2022-12-03T11:26:45.167Z,42.15
2022-12-03T11:29:14.661Z,36.42
2022-12-03T11:31:46.602Z,32.78
2022-12-03T11:34:18.825Z,38.40
2022-12-03T11:37:13.320Z,43.58
2022-12-03T11:39:52.387Z,38.03
2022-12-03T11:42:28.337Z,39.97
2022-12-03T11:45:03.832Z,41.90
2022-12-03T11:47:31.424Z,34.25
2022-12-03T11:49:58.032Z,37.67
2022-12-03T11:52:31.405Z,39.55
2022-12-03T11:55:04.164Z,34.58
2022-12-03T11:57:34.716Z,38.33
2022-12-03T12:00:06.959Z,37.83
2022-12-03T12:02:38.686Z,38.85
2022-12-03T12:05:34.796Z,35.92
2022-12-03T12:08:02.769Z,35.42
2022-12-03T12:10:49.027Z,35.58
2022-12-03T12:13:30.793Z,38.50
2022-12-03T12:16:01.691Z,35.78
2022-12-03T12:18:37.120Z,44.15
2022-12-03T12:21:42.033Z,34.25
2022-12-03T12:24:47.471Z,39.35
2022-12-03T12:27:33.310Z,35.15
2022-12-03T12:30:14.126Z,38.60
2022-12-03T12:32:40.930Z,35.13
2022-12-03T12:35:15.738Z,37.47
2022-12-03T12:37:59.770Z,37.22
2022-12-03T12:40:29.916Z,34.35
2022-12-03T12:42:59.493Z,34.92
2022-12-03T12:45:29.097Z,43.67
2022-12-03T12:48:14.756Z,36.75
2022-12-03T12:50:44.220Z,31.50
2022-12-03T12:53:10.502Z,37.78
2022-12-03T12:55:38.389Z,34.42
2022-12-03T12:58:16.943Z,35.17
2022-12-03T13:00:48.841Z,35.85
2022-12-03T13:03:17.559Z,35.45
2022-12-03T13:05:46.903Z,32.05
2022-12-03T13:08:24.427Z,38.63
2022-12-03T13:10:53.692Z,40.60
2022-12-03T13:13:24.721Z,37.17
2022-12-03T13:16:17.813Z,38.78
2022-12-03T13:18:55.151Z,36.90
2022-12-03T13:21:33.465Z,33.88
2022-12-03T13:24:00.839Z,33.88
2022-12-03T13:26:39.611Z,34.45
2022-12-03T13:29:18.243Z,32.88
2022-12-03T13:31:54.420Z,36.33
2022-12-03T13:34:27.722Z,32.25
2022-12-03T13:36:58.063Z,34.80
2022-12-03T13:39:35.057Z,36.50
2022-12-03T13:42:37.007Z,35.63
2022-12-03T13:45:06.724Z,40.75
2022-12-03T13:47:33.062Z,33.50
2022-12-03T13:50:04.258Z,33.85
2022-12-03T13:52:32.573Z,36.58
2022-12-03T13:54:59.002Z,35.35
2022-12-03T13:57:25.340Z,34.88
2022-12-03T13:59:52.271Z,33.97
2022-12-03T14:02:18.974Z,32.60
2022-12-03T14:04:45.528Z,36.70
2022-12-03T14:07:12.086Z,37.30
2022-12-03T14:09:38.492Z,37.95
2022-12-03T14:12:23.811Z,38.13
2022-12-03T14:14:50.151Z,32.72
2022-12-03T14:17:16.608Z,36.97
2022-12-03T14:19:43.520Z,34.53
2022-12-03T14:22:09.993Z,33.40
2022-12-03T14:24:37.317Z,33.50
2022-12-03T14:27:03.852Z,29.98
2022-12-03T14:29:30.336Z,33.75
2022-12-03T14:31:56.806Z,30.05
2022-12-03T14:34:23.342Z,31.20
2022-12-03T14:36:50.397Z,37.05
2022-12-03T14:39:16.855Z,34.33
2022-12-03T14:42:01.697Z,34.00
2022-12-03T14:44:28.143Z,35.17
2022-12-03T14:46:57.302Z,36.00
2022-12-03T14:49:24.396Z,33.08
2022-12-03T14:51:50.788Z,36.72
2022-12-03T14:54:17.125Z,33.20
2022-12-03T14:56:43.576Z,34.78
2022-12-03T14:59:10.001Z,32.42
2022-12-03T15:01:36.353Z,36.05
2022-12-03T15:04:02.890Z,36.65
2022-12-03T15:06:29.243Z,34.50
2022-12-03T15:08:55.604Z,36.13
2022-12-03T15:11:22.122Z,29.20
2022-12-03T15:13:48.662Z,35.78
2022-12-03T15:16:15.414Z,31.15
2022-12-03T15:18:41.885Z,31.35
2022-12-03T15:21:08.249Z,32.97
2022-12-03T15:23:34.665Z,34.80
2022-12-03T15:26:01.021Z,33.72
2022-12-03T15:28:27.625Z,33.40
2022-12-03T15:30:54.045Z,32.85
2022-12-03T15:33:20.493Z,37.58
2022-12-03T15:35:46.879Z,36.28
2022-12-03T15:38:13.464Z,35.72
2022-12-03T15:40:39.959Z,41.47
2022-12-03T15:43:07.779Z,38.92
2022-12-03T15:45:34.406Z,39.28
2022-12-03T15:48:01.425Z,37.38
2022-12-03T15:50:28.389Z,40.33
2022-12-03T15:52:54.844Z,31.77
2022-12-03T15:55:21.781Z,30.63
2022-12-03T15:57:49.179Z,29.77
2022-12-03T16:00:16.990Z,28.60
2022-12-03T16:02:49.104Z,26.35
2022-12-03T16:05:18.873Z,26.83
2022-12-03T16:07:45.372Z,27.90
2022-12-03T16:10:12.059Z,27.23
2022-12-03T16:12:38.432Z,32.65
2022-12-03T16:15:05.621Z,27.45
2022-12-03T16:17:32.166Z,24.95
2022-12-03T16:19:58.492Z,23.83
2022-12-03T16:22:25.153Z,23.70
2022-12-03T16:24:51.589Z,27.33
2022-12-03T16:27:22.749Z,26.27
2022-12-03T16:29:52.094Z,26.77
2022-12-03T16:32:18.703Z,28.85
2022-12-03T16:34:45.085Z,25.10
2022-12-03T16:37:11.636Z,28.42
2022-12-03T16:39:46.769Z,27.67
2022-12-03T16:42:17.260Z,26.30
2022-12-03T16:45:02.699Z,26.23
2022-12-03T16:47:33.585Z,29.00
2022-12-03T16:50:01.788Z,24.00
2022-12-03T16:52:28.218Z,28.60
2022-12-03T16:54:54.587Z,28.17
2022-12-03T16:57:20.966Z,28.02
2022-12-03T16:59:47.295Z,34.70
2022-12-03T17:02:13.997Z,29.95
2022-12-03T17:04:40.592Z,33.00
2022-12-03T17:07:06.940Z,26.02
2022-12-03T17:09:33.337Z,28.13
2022-12-03T17:11:59.680Z,29.77
2022-12-03T17:14:31.451Z,30.27
2022-12-03T17:16:59.571Z,31.98
2022-12-03T17:19:26.041Z,32.65
2022-12-03T17:21:54.082Z,34.25
2022-12-03T17:24:21.354Z,31.83
2022-12-03T17:26:47.931Z,29.80
2022-12-03T17:29:14.302Z,31.58
2022-12-03T17:31:42.467Z,37.30
2022-12-03T17:34:09.703Z,31.67
2022-12-03T17:36:36.109Z,33.17
2022-12-03T17:39:02.608Z,32.15
2022-12-03T17:41:28.965Z,36.67
2022-12-03T17:43:55.333Z,32.22
2022-12-03T17:46:21.945Z,36.03
2022-12-03T17:48:48.383Z,32.50
2022-12-03T17:51:14.825Z,32.33
2022-12-03T17:53:41.263Z,31.80
2022-12-03T17:56:07.699Z,34.35
2022-12-03T17:58:34.631Z,35.40
2022-12-03T18:01:03.288Z,37.75
2022-12-03T18:03:30.314Z,33.75
2022-12-03T18:05:56.818Z,32.90
2022-12-03T18:08:23.392Z,34.00
2022-12-03T18:10:50.082Z,29.60
2022-12-03T18:13:16.524Z,34.42
2022-12-03T18:15:42.963Z,35.22
2022-12-03T18:18:09.392Z,32.15
2022-12-03T18:20:35.838Z,35.85
2022-12-03T18:23:02.473Z,38.05
2022-12-03T18:25:29.613Z,34.05
2022-12-03T18:27:56.552Z,36.58
2022-12-03T18:30:22.925Z,35.35
2022-12-03T18:32:50.654Z,32.55
2022-12-03T18:35:17.125Z,39.15
2022-12-03T18:37:43.718Z,34.65
2022-12-03T18:40:22.322Z,41.45
2022-12-03T18:42:48.778Z,38.75
2022-12-03T18:45:16.340Z,38.58
2022-12-03T18:47:43.230Z,42.58
2022-12-03T18:50:11.554Z,43.15
2022-12-03T18:52:38.035Z,47.42
2022-12-03T18:55:05.568Z,52.42
2022-12-03T18:57:32.039Z,48.28
2022-12-03T18:59:58.649Z,48.38
2022-12-03T19:03:01.363Z,48.72
2022-12-03T19:05:11.783Z,53.03
2022-12-03T19:07:38.217Z,50.90
2022-12-03T19:10:05.304Z,49.17
2022-12-03T19:12:32.754Z,56.28
2022-12-03T19:14:59.283Z,58.45
2022-12-03T19:17:27.126Z,49.42
2022-12-03T19:19:54.276Z,57.15
2022-12-03T19:22:20.967Z,54.20
2022-12-03T19:24:47.312Z,56.65
2022-12-03T19:27:14.107Z,58.75
2022-12-03T19:29:40.601Z,56.60
2022-12-03T19:32:07.253Z,62.35
2022-12-03T19:34:33.713Z,61.28
2022-12-03T19:37:00.095Z,57.97
2022-12-03T19:39:26.664Z,55.92
2022-12-03T19:41:53.029Z,57.85
2022-12-03T19:44:19.545Z,56.60
2022-12-03T19:46:45.950Z,62.42
2022-12-03T19:49:12.406Z,64.13
2022-12-03T19:51:38.787Z,62.25
2022-12-03T19:54:07.550Z,57.83
2022-12-03T19:56:35.134Z,56.60
2022-12-03T19:59:02.225Z,57.75
2022-12-03T20:01:30.850Z,62.05
2022-12-03T20:03:59.178Z,60.53
2022-12-03T20:06:28.926Z,56.90
2022-12-03T20:08:59.314Z,66.57
2022-12-03T20:11:28.727Z,59.05
2022-12-03T20:13:57.002Z,55.58
2022-12-03T20:16:24.656Z,63.10
2022-12-03T20:18:55.414Z,58.13
2022-12-03T20:21:21.788Z,63.03
2022-12-03T20:23:48.382Z,61.38
2022-12-03T20:26:18.380Z,60.00
2022-12-03T20:28:44.733Z,58.38
2022-12-03T20:31:14.376Z,59.40
2022-12-03T20:33:43.119Z,62.58
2022-12-03T20:36:11.154Z,61.03
2022-12-03T20:38:38.298Z,56.53
2022-12-03T20:41:10.301Z,56.13
2022-12-03T20:43:37.073Z,51.33
2022-12-03T20:46:07.926Z,54.60
2022-12-03T20:48:35.107Z,52.88
2022-12-03T20:51:06.190Z,53.63
2022-12-03T20:53:33.132Z,53.30
2022-12-03T20:56:01.018Z,56.65
2022-12-03T20:58:28.196Z,57.75
2022-12-03T21:00:54.738Z,58.08
2022-12-03T21:03:21.393Z,54.08
2022-12-03T21:05:47.961Z,53.33
2022-12-03T21:08:15.287Z,52.78
2022-12-03T21:10:45.271Z,55.67
2022-12-03T21:13:13.823Z,56.33
2022-12-03T21:15:40.957Z,58.00
2022-12-03T21:18:08.879Z,61.90
2022-12-03T21:20:43.165Z,59.67
2022-12-03T21:23:09.716Z,56.70
2022-12-03T21:25:37.125Z,61.78
2022-12-03T21:28:05.223Z,57.40
2022-12-03T21:30:32.381Z,58.00
2022-12-03T21:32:58.962Z,61.53
2022-12-03T21:35:25.617Z,56.22
2022-12-03T21:37:52.152Z,62.38
2022-12-03T21:40:19.226Z,55.92
2022-12-03T21:42:45.666Z,60.72
2022-12-03T21:45:12.091Z,60.10
2022-12-03T21:47:38.546Z,58.17
2022-12-03T21:50:07.225Z,54.90
2022-12-03T21:52:34.818Z,57.83
2022-12-03T21:55:01.235Z,59.38
2022-12-03T21:57:27.662Z,63.13
2022-12-03T21:59:55.369Z,62.88
2022-12-03T22:02:22.322Z,62.63
2022-12-03T22:04:50.117Z,61.28
2022-12-03T22:07:16.549Z,65.53
2022-12-03T22:09:43.112Z,66.13
2022-12-03T22:12:09.452Z,70.10
2022-12-03T22:14:35.837Z,69.85
2022-12-03T22:17:02.313Z,71.70
2022-12-03T22:19:29.360Z,78.55
2022-12-03T22:21:56.202Z,71.70
2022-12-03T22:24:23.673Z,75.07
2022-12-03T22:26:52.127Z,72.93
2022-12-03T22:29:18.590Z,74.75
2022-12-03T22:31:44.975Z,72.95
2022-12-03T22:34:11.409Z,83.57
2022-12-03T22:36:37.817Z,75.97
2022-12-03T22:39:04.787Z,69.63
2022-12-03T22:41:31.180Z,70.88
2022-12-03T22:43:57.602Z,67.28
2022-12-03T22:46:24.383Z,71.32
2022-12-03T22:48:50.945Z,67.50
2022-12-03T22:51:20.390Z,72.55
2022-12-03T22:53:47.787Z,71.13
2022-12-03T22:56:14.576Z,72.75
2022-12-03T22:58:41.329Z,71.55
2022-12-03T23:01:08.138Z,74.65
2022-12-03T23:03:34.771Z,70.88
2022-12-03T23:06:01.175Z,71.22
2022-12-03T23:08:27.678Z,65.45
2022-12-03T23:10:54.052Z,71.18
2022-12-03T23:13:20.764Z,67.78
2022-12-03T23:15:49.799Z,67.75
2022-12-03T23:18:17.333Z,65.28
2022-12-03T23:20:46.398Z,72.32
2022-12-03T23:23:13.000Z,68.63
2022-12-03T23:25:39.563Z,65.78
2022-12-03T23:28:06.487Z,65.57
2022-12-03T23:30:37.397Z,65.40
2022-12-03T23:33:04.870Z,70.93
2022-12-03T23:35:32.178Z,69.10
2022-12-03T23:37:58.793Z,70.60
2022-12-03T23:40:25.154Z,69.32
2022-12-03T23:42:51.636Z,67.95
2022-12-03T23:45:17.978Z,65.20
2022-12-03T23:47:44.330Z,65.78
2022-12-03T23:50:11.076Z,66.88
2022-12-03T23:52:37.847Z,62.03
2022-12-03T23:55:04.516Z,65.90
2022-12-03T23:57:30.967Z,64.45
2022-12-03T23:59:57.573Z,63.72
